Terminal Aerodrome Forecast
Issued by NWS

Home | Current Version | Previous Version | Text Only | Print | Product List | Glossary Off
Versions: 1 2 3 4 5 6 7 8 9 10 11 12 13 14 15 16 17

625
FTUS43 KMPX 181120
TAFRNH
TAF
KRNH 181120Z 1812/1912 28004KT P6SM SCT250
     FM181800 29007KT P6SM SCT050 BKN150 PROB30 1822/1901 5SM -TSRA
      BKN050CB
     FM190100 VRB02KT P6SM SCT100
     FM190700 00000KT 3SM BR SKC
     FM191000 00000KT 3/4SM BR SCT002=

USA.gov is the U.S. government's official web portal to all federal, state and local government web resources and services.